Station: Cape Wessel  

  Atmospheric Gas Attenuation - ITU Rec 676-11   ----------------- dB/100km -----------------
Date Time Temp RH % AH g/m3 Dew Point Wind Direction Speed kph Gust kph Barometer mB Rainfall Since 9am 24GHz 47GHz 76GHz 122GHz 134GHz 241GHz
09/05 21:20 26.1 97 23.75 25.6 33 35 1011.4 29.6 51.0 48.8 99.4 263.3 297.7 1034.2
09/05 21:10 26 97 23.62 25.5 35 39 1011.2 29.4 50.7 48.6 98.9 261.9 295.9 1027.8
09/05 21:00 26 97 23.62 25.5 30 39 1010.9 29.4 50.7 48.6 98.9 261.8 295.8 1027.6
09/05 20:50 25.7 97 23.22 25.2 32 35 1010.9 29.4 49.9 48.0 97.2 257.3 290.2 1008.2
09/05 20:40 25.8 96 23.11 25.1 35 43 1011 29.4 49.6 47.7 96.5 255.5 288.0 1000.5
09/05 20:30 25.9 96 23.24 25.2 39 48 1010.9 29.2 49.9 47.9 97.0 256.9 289.8 1006.7
09/05 20:20 25.8 96 23.11 25.1 43 46 1011 29.2 49.6 47.7 96.5 255.5 288.0 1000.5
09/05 20:10 25.9 96 23.24 25.2 37 43 1011.1 29.2 49.9 47.9 97.0 256.9 289.8 1006.8
09/05 20:00 25.7 97 23.22 25.2 37 44 1010.9 29.2 49.9 48.0 97.2 257.3 290.2 1008.2
09/05 19:50 25.8 97 23.35 25.3 35 39 1010.5 29 50.2 48.2 97.7 258.7 292.0 1014.2
09/05 19:40 25.6 97 23.09 25.1 33 43 1010.5 29 49.6 47.7 96.6 255.8 288.4 1001.7
09/05 19:30 25.5 97 22.96 25 32 46 1010.6 26.8 49.4 47.5 96.1 254.4 286.6 995.5
09/05 19:20 25.7 97 23.22 25.2 30 35 1010.5 19.2 49.9 47.9 97.1 257.2 290.2 1008.0
09/05 19:10 26 97 23.62 25.5 15 17 1010 13.2 50.7 48.6 98.8 261.6 295.6 1027.0
09/05 19:00 26.1 97 23.75 25.6 19 26 1009.8 11.2 51.0 48.8 99.3 263.0 297.4 1033.2
09/05 18:50 25.7 97 23.22 25.2 20 22 1009.9 10.8 49.9 47.9 97.1 257.1 290.1 1007.6
09/05 18:40 25.8 97 23.35 25.3 24 26 1009.8 10.6 50.2 48.1 97.6 258.6 291.8 1013.8
09/05 18:30 25.8 97 23.35 25.3 26 35 1010 10.4 50.2 48.1 97.6 258.6 291.9 1013.9
09/05 18:20 25.9 97 23.48 25.4 20 24 1009.7 10.2 50.4 48.3 98.2 260.0 293.6 1020.0
09/05 18:10 25.8 97 23.35 25.3 22 26 1009.5 8.4 50.2 48.1 97.6 258.5 291.8 1013.6
09/05 18:00 25.7 97 23.22 25.2 24 32 1009.3 7.8 49.9 47.9 97.1 257.0 289.9 1007.2
09/05 17:50 25.5 96 22.73 24.8 30 33 1009.2 7.8 48.9 47.0 94.8 251.0 282.5 981.2
09/05 17:40 25.6 96 22.86 24.9 32 33 1009.2 7.8 49.2 47.2 95.3 252.4 284.3 987.4
09/05 17:30 25.6 96 22.86 24.9 30 35 1009.2 7.6 49.2 47.2 95.3 252.4 284.3 987.4
09/05 17:20 26 97 23.62 25.5 26 32 1009.2 7.6 50.7 48.5 98.7 261.5 295.5 1026.5
09/05 17:10 25.6 96 22.86 24.9 37 43 1009.2 7.2 49.2 47.2 95.3 252.4 284.3 987.4
09/05 17:00 25.9 96 23.24 25.2 39 50 1009.2 5.8 49.9 47.8 96.9 256.6 289.5 1005.6
09/05 16:50 26.4 94 23.4 25.4 35 43 1009.2 3.6 50.2 47.8 97.1 257.1 290.2 1008.1
09/05 16:40 27.1 93 24.07 25.9 20 24 1008.9 2.4 51.5 48.8 99.6 263.7 298.6 1037.4
09/05 16:30 27.6 89 23.68 25.6 30 35 1008.8 0.2 50.6 47.7 96.9 256.6 290.0 1007.8
09/05 16:20 28.3 86 23.78 25.7 30 32 1008.6 0 50.8 47.5 96.5 255.5 288.9 1003.9
09/05 16:10 28.3 87 24.05 25.9 22 24 1008.5 0 51.3 48.0 97.8 259.2 293.3 1019.3
09/05 16:00 28.8 84 23.87 25.8 24 30 1008.5 0 50.9 47.4 96.3 255.0 288.4 1002.2
09/05 15:50 28.5 85 23.76 25.7 22 26 1008.5 0 50.7 47.3 96.1 254.6 287.7 1000.0
09/05 15:40 27.9 85 22.99 25.1 26 28 1008.5 0 49.1 46.1 93.0 246.3 277.5 964.3
09/05 15:30 27.4 87 22.89 25 28 39 1008.5 0 49.0 46.2 93.1 246.6 277.7 965.1
09/05 15:20 27.2 84 21.86 24.3 33 35 1008.5 0 46.8 44.2 88.3 233.7 261.8 909.7
09/05 15:10 30.4 73 22.63 25 32 44 1008.5 0 48.0 44.0 88.2 233.7 262.6 913.1
09/05 15:00 31.3 73 23.75 25.9 28 35 1008.5 0 50.3 45.7 92.5 245.1 276.9 962.8
09/05 14:50 31.9 71 23.85 26 26 30 1008.5 0 50.4 45.6 92.3 244.4 276.2 960.6
09/05 14:40 31.9 69 23.18 25.7 26 30 1008.5 0 49.0 44.3 89.1 235.9 265.8 924.4
09/05 14:30 31.9 69 23.18 25.7 26 32 1008.6 0 49.0 44.3 89.1 236.0 265.8 924.5
09/05 14:20 31.9 69 23.18 25.5 30 32 1008.6 0 49.0 44.3 89.1 236.0 265.8 924.5
09/05 14:10 32.3 71 24.36 26.4 28 30 1008.7 0 51.4 46.3 94.2 249.7 282.8 983.3
09/05 14:00 31.8 69 23.05 25.6 28 33 1008.9 0 48.7 44.1 88.6 234.7 264.3 918.9
09/05 13:50 32.2 70 23.89 26 28 33 1008.9 0 50.5 45.5 92.1 244.0 275.8 959.2
09/05 13:40 31.1 71 22.85 25.4 30 33 1009 0 48.4 44.1 88.5 234.4 263.7 916.8
09/05 13:30 31.6 68 22.48 25 28 35 1009.2 0 47.6 43.1 86.2 228.2 256.3 891.2
09/05 13:20 32 67 22.63 25.3 28 33 1009.4 0 47.8 43.2 86.4 228.9 257.2 894.5
09/05 13:10 32.1 67 22.75 25.4 32 35 1009.5 0 48.1 43.4 86.9 230.1 258.7 899.7
09/05 13:00 32.1 69 23.43 25.7 33 39 1009.7 0 49.5 44.7 90.1 238.7 269.2 936.1
09/05 12:50 31.1 68 21.88 24.5 33 39 1009.9 0 46.4 42.3 84.0 222.4 249.0 865.7
09/05 12:40 31.8 69 23.05 25.4 33 39 1010 0 48.7 44.2 88.7 234.9 264.4 919.6
09/05 12:30 32.1 70 23.77 25.9 32 41 1010.1 0 50.2 45.4 91.7 243.0 274.5 954.7
09/05 12:20 30.5 72 22.44 24.9 37 43 1010.2 0 47.6 43.7 87.3 231.2 259.6 902.7
09/05 12:10 31.6 72 23.8 25.9 30 35 1010.4 0 50.3 45.7 92.5 245.1 276.9 962.8
09/05 12:00 32.1 71 24.1 26.2 28 35 1010.5 0 50.9 46.0 93.4 247.3 279.8 972.8
09/05 11:50 31.9 69 23.18 25.5 30 33 1010.7 0 49.0 44.4 89.2 236.3 266.2 925.8
09/05 11:40 31.3 71 23.1 25.4 30 33 1010.8 0 48.9 44.6 89.6 237.2 267.1 928.9
09/05 11:30 32.1 69 23.43 25.7 28 35 1011 0 49.5 44.8 90.2 238.9 269.4 936.9
09/05 11:20 31.9 72 24.18 26.4 24 28 1011.1 0 51.1 46.3 94.0 249.1 281.9 980.2
09/05 11:10 31.5 71 23.34 25.6 28 35 1011.2 0 49.4 44.9 90.5 239.7 270.2 939.6
09/05 11:00 30.7 72 22.68 25.1 32 41 1011.4 0 48.1 44.1 88.3 233.9 262.8 913.9
09/05 10:50 31 72 23.05 25.4 32 35 1011.5 0 48.8 44.6 89.7 237.6 267.6 930.3
09/05 10:40 31.4 71 23.22 25.5 33 39 1011.5 0 49.1 44.8 90.1 238.5 268.8 934.5
09/05 10:30 30.6 74 23.18 25.4 32 39 1011.5 0 49.2 45.1 90.8 240.6 271.0 942.3
09/05 10:20 31.3 74 24.07 26.1 30 35 1011.4 0 50.9 46.5 94.3 249.7 282.5 982.1
09/05 10:10 31.1 71 22.85 25.4 32 37 1011.5 0 48.4 44.2 88.6 234.8 264.1 918.3
09/05 10:00 31.1 71 22.85 25.4 32 39 1011.5 0 48.4 44.2 88.6 234.8 264.1 918.3
09/05 09:50 30.7 71 22.36 24.8 35 39 1011.6 0 47.4 43.5 86.8 229.9 257.9 896.8
09/05 09:40 30.2 77 23.61 25.7 32 35 1011.7 0 50.1 46.2 93.4 247.4 279.4 971.2
09/05 09:30 30.4 75 23.25 25.5 28 33 1011.6 0 49.3 45.4 91.4 242.1 272.9 948.7
09/05 09:20 30.2 73 22.38 25 32 35 1011.5 0 47.5 43.8 87.5 231.6 260.0 903.8
09/05 09:10 29.5 78 23.03 25.3 28 32 1011.5 0 49.0 45.4 91.4 242.2 272.7 947.9
09/05 09:00 30.5 75 23.37 25.6 30 37 1011.5 0 49.6 45.5 91.9 243.3 274.4 954.0
09/05 08:50 30.1 75 22.87 25.2 28 35 1011.5 0 48.6 44.8 89.9 238.2 268.0 931.6
09/05 08:40 29.4 77 22.61 24.9 28 35 1011.5 0 48.1 44.7 89.5 237.0 266.4 926.0
09/05 08:30 29.2 76 22.07 24.5 30 39 1011.4 0 47.0 43.7 87.1 230.7 258.6 898.9
09/05 08:20 29 78 22.41 24.8 30 35 1011.3 0 47.7 44.5 89.0 235.7 264.6 919.8
09/05 08:10 29 78 22.41 24.8 30 32 1011.1 0 47.7 44.5 89.0 235.6 264.6 919.7
09/05 08:00 28.9 77 22 24.5 30 39 1010.9 0 46.9 43.7 87.1 230.7 258.5 898.4
09/05 07:50 28.8 77 21.88 24.4 30 33 1010.8 0 46.6 43.5 86.6 229.4 256.9 893.0
09/05 07:40 28.6 79 22.2 24.6 28 32 1010.8 0 47.3 44.3 88.4 234.1 262.6 912.9
09/05 07:30 28.2 80 22 24.4 32 39 1010.7 0 47.0 44.1 87.9 232.8 260.9 906.6
09/05 07:20 27.9 81 21.91 24.3 30 37 1010.6 0 46.8 44.1 87.8 232.5 260.5 905.2
09/05 07:10 27.7 81 21.67 24.1 32 33 1010.5 0 46.3 43.7 86.9 230.0 257.4 894.4
09/05 07:00 27.5 83 21.96 24.4 32 41 1010.3 0 47.0 44.4 88.5 234.4 262.6 912.7
09/05 06:50 27.3 82 21.46 24 33 37 1010.1 0 45.9 43.5 86.3 228.5 255.3 887.3
09/05 06:40 27.3 82 21.46 24 37 41 1010 0 45.9 43.5 86.3 228.4 255.3 887.3
09/05 06:30 27.5 84 22.23 24.6 33 43 1009.9 0 47.6 44.9 89.8 237.8 266.9 927.5
09/05 06:20 27.4 83 21.84 24.3 32 37 1009.9 0 46.7 44.2 88.0 233.1 261.0 907.0
09/05 06:10 27.3 84 21.98 24.4 26 32 1009.8 0 47.1 44.5 88.8 235.2 263.6 915.9
09/05 06:00 27.1 85 22 24.4 32 39 1009.6 0 47.1 44.6 89.1 236.0 264.6 919.4
09/05 05:50 27.1 86 22.26 24.6 30 35 1009.6 0 47.7 45.1 90.4 239.5 268.8 934.0
09/05 05:40 27.1 83 21.48 24 26 30 1009.6 0 46.0 43.6 86.6 229.2 256.3 890.5
09/05 05:30 27.2 83 21.6 24.1 32 46 1009.6 0 46.3 43.8 87.1 230.5 257.8 895.9
09/05 05:20 27.5 83 21.96 24.3 30 33 1009.6 0 47.0 44.3 88.5 234.3 262.5 912.3
09/05 05:10 27.4 83 21.84 24.3 32 35 1009.5 0 46.7 44.1 88.0 233.0 260.9 906.8
09/05 05:00 27.4 82 21.58 24.1 33 41 1009.6 0 46.2 43.6 86.7 229.6 256.8 892.4
09/05 04:50 27.3 82 21.46 24 33 37 1009.6 0 46.0 43.5 86.3 228.4 255.3 887.0

Last Refresh: 09-May-2026 21:29:18

Bureau of Meteorology